sensor_id;sensor_type;location;lat;lon;timestamp;temperature;humidity
37050;DHT22;22958;51.232;6.826;2023-06-22T00:01:58;22.90;99.90
37050;DHT22;22958;51.232;6.826;2023-06-22T00:04:24;23.00;99.90
37050;DHT22;22958;51.232;6.826;2023-06-22T00:06:49;22.90;99.90
37050;DHT22;22958;51.232;6.826;2023-06-22T00:09:15;22.80;99.90
37050;DHT22;22958;51.232;6.826;2023-06-22T00:11:40;22.90;99.90
37050;DHT22;22958;51.232;6.826;2023-06-22T00:14:06;22.80;99.90
37050;DHT22;22958;51.232;6.826;2023-06-22T00:16:32;22.80;99.90
37050;DHT22;22958;51.232;6.826;2023-06-22T00:18:58;22.80;99.90
37050;DHT22;22958;51.232;6.826;2023-06-22T00:21:26;22.80;99.90
37050;DHT22;22958;51.232;6.826;2023-06-22T00:23:52;22.80;99.90
37050;DHT22;22958;51.232;6.826;2023-06-22T00:26:17;22.80;99.90
37050;DHT22;22958;51.232;6.826;2023-06-22T00:28:43;22.80;99.90
37050;DHT22;22958;51.232;6.826;2023-06-22T00:31:08;22.80;99.90
37050;DHT22;22958;51.232;6.826;2023-06-22T00:33:34;22.80;99.90
37050;DHT22;22958;51.232;6.826;2023-06-22T00:35:59;22.80;99.90
37050;DHT22;22958;51.232;6.826;2023-06-22T00:38:25;22.70;99.90
37050;DHT22;22958;51.232;6.826;2023-06-22T00:40:50;22.60;99.90
37050;DHT22;22958;51.232;6.826;2023-06-22T00:43:16;22.60;99.90
37050;DHT22;22958;51.232;6.826;2023-06-22T00:45:41;22.50;99.90
37050;DHT22;22958;51.232;6.826;2023-06-22T00:48:07;22.50;99.90
37050;DHT22;22958;51.232;6.826;2023-06-22T00:50:33;22.40;99.90
37050;DHT22;22958;51.232;6.826;2023-06-22T00:53:04;22.40;99.90
37050;DHT22;22958;51.232;6.826;2023-06-22T00:55:37;22.40;99.90
37050;DHT22;22958;51.232;6.826;2023-06-22T00:58:03;22.40;99.90
37050;DHT22;22958;51.232;6.826;2023-06-22T01:00:31;22.30;99.90
37050;DHT22;22958;51.232;6.826;2023-06-22T01:02:58;22.30;99.90
37050;DHT22;22958;51.232;6.826;2023-06-22T01:05:24;22.30;99.90
37050;DHT22;22958;51.232;6.826;2023-06-22T01:10:50;22.20;99.90
37050;DHT22;22958;51.232;6.826;2023-06-22T01:15:55;22.20;99.90
37050;DHT22;22958;51.232;6.826;2023-06-22T01:18:22;22.20;99.90
37050;DHT22;22958;51.232;6.826;2023-06-22T01:20:54;22.10;99.90
37050;DHT22;22958;51.232;6.826;2023-06-22T01:23:46;22.10;99.90
37050;DHT22;22958;51.232;6.826;2023-06-22T01:26:22;22.10;99.90
37050;DHT22;22958;51.232;6.826;2023-06-22T01:28:54;22.10;99.90
37050;DHT22;22958;51.232;6.826;2023-06-22T01:31:23;22.10;99.90
37050;DHT22;22958;51.232;6.826;2023-06-22T01:34:01;22.10;99.90
37050;DHT22;22958;51.232;6.826;2023-06-22T01:36:28;22.10;99.90
37050;DHT22;22958;51.232;6.826;2023-06-22T01:38:55;22.00;99.90
37050;DHT22;22958;51.232;6.826;2023-06-22T01:41:25;22.00;99.90
37050;DHT22;22958;51.232;6.826;2023-06-22T01:43:52;22.00;99.90
37050;DHT22;22958;51.232;6.826;2023-06-22T01:46:17;21.90;99.90
37050;DHT22;22958;51.232;6.826;2023-06-22T01:48:45;21.90;99.90
37050;DHT22;22958;51.232;6.826;2023-06-22T01:51:11;21.90;99.90
37050;DHT22;22958;51.232;6.826;2023-06-22T01:53:37;21.90;99.90
37050;DHT22;22958;51.232;6.826;2023-06-22T01:56:03;21.90;99.90
37050;DHT22;22958;51.232;6.826;2023-06-22T01:58:30;21.90;99.90
37050;DHT22;22958;51.232;6.826;2023-06-22T02:01:11;21.80;99.90
37050;DHT22;22958;51.232;6.826;2023-06-22T02:03:55;21.80;99.90
37050;DHT22;22958;51.232;6.826;2023-06-22T02:06:31;21.80;99.90
37050;DHT22;22958;51.232;6.826;2023-06-22T02:09:02;21.80;99.90
37050;DHT22;22958;51.232;6.826;2023-06-22T02:11:31;21.80;99.90
37050;DHT22;22958;51.232;6.826;2023-06-22T02:13:58;21.80;99.90
37050;DHT22;22958;51.232;6.826;2023-06-22T02:16:25;21.80;99.90
37050;DHT22;22958;51.232;6.826;2023-06-22T02:18:54;21.70;99.90
37050;DHT22;22958;51.232;6.826;2023-06-22T02:21:20;21.70;99.90
37050;DHT22;22958;51.232;6.826;2023-06-22T02:23:46;21.60;99.90
37050;DHT22;22958;51.232;6.826;2023-06-22T02:26:12;21.60;99.90
37050;DHT22;22958;51.232;6.826;2023-06-22T02:28:38;21.60;99.90
37050;DHT22;22958;51.232;6.826;2023-06-22T02:31:04;21.50;99.90
37050;DHT22;22958;51.232;6.826;2023-06-22T02:33:30;21.50;99.90
37050;DHT22;22958;51.232;6.826;2023-06-22T02:35:55;21.50;99.90
37050;DHT22;22958;51.232;6.826;2023-06-22T02:38:21;21.60;99.90
37050;DHT22;22958;51.232;6.826;2023-06-22T02:40:46;21.60;99.90
37050;DHT22;22958;51.232;6.826;2023-06-22T02:43:12;21.60;99.90
37050;DHT22;22958;51.232;6.826;2023-06-22T02:45:38;21.50;99.90
37050;DHT22;22958;51.232;6.826;2023-06-22T02:48:04;21.60;99.90
37050;DHT22;22958;51.232;6.826;2023-06-22T02:50:30;21.50;99.90
37050;DHT22;22958;51.232;6.826;2023-06-22T02:52:55;21.50;99.90
37050;DHT22;22958;51.232;6.826;2023-06-22T02:55:21;21.50;99.90
37050;DHT22;22958;51.232;6.826;2023-06-22T02:57:46;21.50;99.90
37050;DHT22;22958;51.232;6.826;2023-06-22T03:00:13;21.50;99.90
37050;DHT22;22958;51.232;6.826;2023-06-22T03:02:49;21.50;99.90
37050;DHT22;22958;51.232;6.826;2023-06-22T03:05:15;21.50;99.90
37050;DHT22;22958;51.232;6.826;2023-06-22T03:07:44;21.50;99.90
37050;DHT22;22958;51.232;6.826;2023-06-22T03:10:10;21.40;99.90
37050;DHT22;22958;51.232;6.826;2023-06-22T03:12:37;21.40;99.90
37050;DHT22;22958;51.232;6.826;2023-06-22T03:15:04;21.40;99.90
37050;DHT22;22958;51.232;6.826;2023-06-22T03:17:30;21.50;99.90
37050;DHT22;22958;51.232;6.826;2023-06-22T03:19:56;21.40;99.90
37050;DHT22;22958;51.232;6.826;2023-06-22T03:22:21;21.40;99.90
37050;DHT22;22958;51.232;6.826;2023-06-22T03:24:46;21.20;99.90
37050;DHT22;22958;51.232;6.826;2023-06-22T03:27:12;21.20;99.90
37050;DHT22;22958;51.232;6.826;2023-06-22T03:29:38;21.20;99.90
37050;DHT22;22958;51.232;6.826;2023-06-22T03:32:04;21.10;99.90
37050;DHT22;22958;51.232;6.826;2023-06-22T03:34:31;21.10;99.90
37050;DHT22;22958;51.232;6.826;2023-06-22T03:36:58;21.10;99.90
37050;DHT22;22958;51.232;6.826;2023-06-22T03:39:24;21.10;99.90
37050;DHT22;22958;51.232;6.826;2023-06-22T03:41:50;21.10;99.90
37050;DHT22;22958;51.232;6.826;2023-06-22T03:44:15;21.10;99.90
37050;DHT22;22958;51.232;6.826;2023-06-22T03:46:41;21.10;99.90
37050;DHT22;22958;51.232;6.826;2023-06-22T03:49:06;21.10;99.90
37050;DHT22;22958;51.232;6.826;2023-06-22T03:51:32;21.10;99.90
37050;DHT22;22958;51.232;6.826;2023-06-22T03:53:58;21.20;99.90
37050;DHT22;22958;51.232;6.826;2023-06-22T03:56:23;21.30;99.90
37050;DHT22;22958;51.232;6.826;2023-06-22T03:58:49;21.40;99.90
37050;DHT22;22958;51.232;6.826;2023-06-22T04:01:14;21.50;99.90
37050;DHT22;22958;51.232;6.826;2023-06-22T04:03:42;21.50;99.90
37050;DHT22;22958;51.232;6.826;2023-06-22T04:06:08;21.40;99.90
37050;DHT22;22958;51.232;6.826;2023-06-22T04:08:34;21.50;99.90
37050;DHT22;22958;51.232;6.826;2023-06-22T04:10:59;21.50;99.90
37050;DHT22;22958;51.232;6.826;2023-06-22T04:13:25;21.40;99.90
37050;DHT22;22958;51.232;6.826;2023-06-22T04:15:50;21.50;99.90
37050;DHT22;22958;51.232;6.826;2023-06-22T04:18:16;21.50;99.90
37050;DHT22;22958;51.232;6.826;2023-06-22T04:20:41;21.50;99.90
37050;DHT22;22958;51.232;6.826;2023-06-22T04:23:07;21.60;99.90
37050;DHT22;22958;51.232;6.826;2023-06-22T04:25:32;21.60;99.90
37050;DHT22;22958;51.232;6.826;2023-06-22T04:27:58;21.60;99.90
37050;DHT22;22958;51.232;6.826;2023-06-22T04:30:23;21.60;99.90
37050;DHT22;22958;51.232;6.826;2023-06-22T04:32:49;21.50;99.90
37050;DHT22;22958;51.232;6.826;2023-06-22T04:35:21;21.50;99.90
37050;DHT22;22958;51.232;6.826;2023-06-22T04:37:48;21.60;99.90
37050;DHT22;22958;51.232;6.826;2023-06-22T04:40:15;21.60;99.90
37050;DHT22;22958;51.232;6.826;2023-06-22T04:42:40;21.60;99.90
37050;DHT22;22958;51.232;6.826;2023-06-22T04:45:17;21.70;99.90
37050;DHT22;22958;51.232;6.826;2023-06-22T04:47:42;21.70;99.90
37050;DHT22;22958;51.232;6.826;2023-06-22T04:50:13;21.70;99.90
37050;DHT22;22958;51.232;6.826;2023-06-22T04:52:39;21.80;99.90
37050;DHT22;22958;51.232;6.826;2023-06-22T04:55:05;21.80;99.90
37050;DHT22;22958;51.232;6.826;2023-06-22T04:57:31;21.80;99.90
37050;DHT22;22958;51.232;6.826;2023-06-22T05:00:00;21.80;99.90
37050;DHT22;22958;51.232;6.826;2023-06-22T05:02:37;21.80;99.90
37050;DHT22;22958;51.232;6.826;2023-06-22T05:05:03;21.80;99.90
37050;DHT22;22958;51.232;6.826;2023-06-22T05:07:35;21.80;99.90
37050;DHT22;22958;51.232;6.826;2023-06-22T05:10:02;21.90;99.90
37050;DHT22;22958;51.232;6.826;2023-06-22T05:12:28;21.90;99.90
37050;DHT22;22958;51.232;6.826;2023-06-22T05:14:54;21.80;99.90
37050;DHT22;22958;51.232;6.826;2023-06-22T05:17:20;21.90;99.90
37050;DHT22;22958;51.232;6.826;2023-06-22T05:19:45;21.90;99.90
37050;DHT22;22958;51.232;6.826;2023-06-22T05:22:15;22.00;99.90
37050;DHT22;22958;51.232;6.826;2023-06-22T05:24:40;22.00;99.90
37050;DHT22;22958;51.232;6.826;2023-06-22T05:27:06;22.00;99.90
37050;DHT22;22958;51.232;6.826;2023-06-22T05:29:32;22.00;99.90
37050;DHT22;22958;51.232;6.826;2023-06-22T05:31:57;22.00;99.90
37050;DHT22;22958;51.232;6.826;2023-06-22T05:34:22;22.00;99.90
37050;DHT22;22958;51.232;6.826;2023-06-22T05:36:48;22.00;99.90
37050;DHT22;22958;51.232;6.826;2023-06-22T05:39:14;22.00;99.90
37050;DHT22;22958;51.232;6.826;2023-06-22T05:41:40;22.00;99.90
37050;DHT22;22958;51.232;6.826;2023-06-22T05:44:06;22.10;99.90
37050;DHT22;22958;51.232;6.826;2023-06-22T05:46:32;22.20;99.90
37050;DHT22;22958;51.232;6.826;2023-06-22T05:48:57;22.10;99.90
37050;DHT22;22958;51.232;6.826;2023-06-22T05:51:23;22.10;99.90
37050;DHT22;22958;51.232;6.826;2023-06-22T05:53:48;22.10;99.90
37050;DHT22;22958;51.232;6.826;2023-06-22T05:56:15;22.10;99.90
37050;DHT22;22958;51.232;6.826;2023-06-22T05:58:41;22.20;99.90
37050;DHT22;22958;51.232;6.826;2023-06-22T06:01:06;22.20;99.90
37050;DHT22;22958;51.232;6.826;2023-06-22T06:03:32;22.30;99.90
37050;DHT22;22958;51.232;6.826;2023-06-22T06:05:57;22.20;99.90
37050;DHT22;22958;51.232;6.826;2023-06-22T06:08:23;22.20;99.90
37050;DHT22;22958;51.232;6.826;2023-06-22T06:10:48;22.30;99.90
37050;DHT22;22958;51.232;6.826;2023-06-22T06:13:14;22.20;99.90
37050;DHT22;22958;51.232;6.826;2023-06-22T06:15:39;22.30;99.90
37050;DHT22;22958;51.232;6.826;2023-06-22T06:18:05;22.30;99.90
37050;DHT22;22958;51.232;6.826;2023-06-22T06:20:32;22.40;99.90
37050;DHT22;22958;51.232;6.826;2023-06-22T06:22:58;22.40;99.90
37050;DHT22;22958;51.232;6.826;2023-06-22T06:25:23;22.50;99.90
37050;DHT22;22958;51.232;6.826;2023-06-22T06:27:51;22.30;99.90
37050;DHT22;22958;51.232;6.826;2023-06-22T06:30:18;22.40;99.90
37050;DHT22;22958;51.232;6.826;2023-06-22T06:32:45;22.40;99.90
37050;DHT22;22958;51.232;6.826;2023-06-22T06:35:12;22.40;99.90
37050;DHT22;22958;51.232;6.826;2023-06-22T06:37:40;22.40;99.90
37050;DHT22;22958;51.232;6.826;2023-06-22T06:40:10;22.50;99.90
37050;DHT22;22958;51.232;6.826;2023-06-22T06:42:38;22.50;99.90
37050;DHT22;22958;51.232;6.826;2023-06-22T06:45:06;22.50;99.90
37050;DHT22;22958;51.232;6.826;2023-06-22T06:47:32;22.50;99.90
37050;DHT22;22958;51.232;6.826;2023-06-22T06:49:57;22.60;99.90
37050;DHT22;22958;51.232;6.826;2023-06-22T06:52:23;22.70;99.90
37050;DHT22;22958;51.232;6.826;2023-06-22T06:54:48;22.70;99.90
37050;DHT22;22958;51.232;6.826;2023-06-22T06:57:14;22.60;99.90
37050;DHT22;22958;51.232;6.826;2023-06-22T06:59:40;22.70;99.90
37050;DHT22;22958;51.232;6.826;2023-06-22T07:02:06;22.70;99.90
37050;DHT22;22958;51.232;6.826;2023-06-22T07:04:32;22.70;99.90
37050;DHT22;22958;51.232;6.826;2023-06-22T07:07:00;22.60;99.90
37050;DHT22;22958;51.232;6.826;2023-06-22T07:09:26;22.60;99.90
37050;DHT22;22958;51.232;6.826;2023-06-22T07:11:51;22.50;99.90
37050;DHT22;22958;51.232;6.826;2023-06-22T07:14:17;22.50;99.90
37050;DHT22;22958;51.232;6.826;2023-06-22T07:16:42;22.60;99.90
37050;DHT22;22958;51.232;6.826;2023-06-22T07:19:08;22.40;99.90
37050;DHT22;22958;51.232;6.826;2023-06-22T07:21:33;22.40;99.90
37050;DHT22;22958;51.232;6.826;2023-06-22T07:23:59;22.40;99.90
37050;DHT22;22958;51.232;6.826;2023-06-22T07:26:24;22.30;99.90
37050;DHT22;22958;51.232;6.826;2023-06-22T07:28:50;22.40;99.90
37050;DHT22;22958;51.232;6.826;2023-06-22T07:31:16;22.30;99.90
37050;DHT22;22958;51.232;6.826;2023-06-22T07:33:41;22.20;99.90
37050;DHT22;22958;51.232;6.826;2023-06-22T07:36:07;22.00;99.90
37050;DHT22;22958;51.232;6.826;2023-06-22T07:38:34;21.70;99.90
37050;DHT22;22958;51.232;6.826;2023-06-22T07:41:00;21.40;99.90
37050;DHT22;22958;51.232;6.826;2023-06-22T07:43:26;21.40;99.90
37050;DHT22;22958;51.232;6.826;2023-06-22T07:45:52;21.60;99.90
37050;DHT22;22958;51.232;6.826;2023-06-22T07:48:20;21.80;99.90
37050;DHT22;22958;51.232;6.826;2023-06-22T07:50:46;21.90;99.90
37050;DHT22;22958;51.232;6.826;2023-06-22T07:53:12;22.20;99.90
37050;DHT22;22958;51.232;6.826;2023-06-22T07:55:37;22.40;99.90
37050;DHT22;22958;51.232;6.826;2023-06-22T07:58:03;22.70;99.90
37050;DHT22;22958;51.232;6.826;2023-06-22T08:00:28;23.10;99.90
37050;DHT22;22958;51.232;6.826;2023-06-22T08:02:54;23.20;99.90
37050;DHT22;22958;51.232;6.826;2023-06-22T08:05:20;23.40;99.90
37050;DHT22;22958;51.232;6.826;2023-06-22T08:07:45;23.60;99.90
37050;DHT22;22958;51.232;6.826;2023-06-22T08:10:12;23.90;99.90
37050;DHT22;22958;51.232;6.826;2023-06-22T08:12:39;24.10;99.90
37050;DHT22;22958;51.232;6.826;2023-06-22T08:15:05;24.00;99.90
37050;DHT22;22958;51.232;6.826;2023-06-22T08:17:31;24.30;99.90
37050;DHT22;22958;51.232;6.826;2023-06-22T08:19:57;24.50;99.90
37050;DHT22;22958;51.232;6.826;2023-06-22T08:22:23;24.70;99.90
37050;DHT22;22958;51.232;6.826;2023-06-22T08:24:49;24.90;99.90
37050;DHT22;22958;51.232;6.826;2023-06-22T08:27:15;25.00;99.90
37050;DHT22;22958;51.232;6.826;2023-06-22T08:29:42;25.30;99.90
37050;DHT22;22958;51.232;6.826;2023-06-22T08:32:11;25.30;99.90
37050;DHT22;22958;51.232;6.826;2023-06-22T08:34:38;25.20;99.90
37050;DHT22;22958;51.232;6.826;2023-06-22T08:37:08;25.20;99.90
37050;DHT22;22958;51.232;6.826;2023-06-22T08:39:33;25.30;99.90
37050;DHT22;22958;51.232;6.826;2023-06-22T08:41:59;25.40;99.90
37050;DHT22;22958;51.232;6.826;2023-06-22T08:44:25;25.40;99.90
37050;DHT22;22958;51.232;6.826;2023-06-22T08:46:51;25.50;99.90
37050;DHT22;22958;51.232;6.826;2023-06-22T08:49:16;25.70;99.90
37050;DHT22;22958;51.232;6.826;2023-06-22T08:51:41;25.90;99.90
37050;DHT22;22958;51.232;6.826;2023-06-22T08:54:07;26.10;99.90
37050;DHT22;22958;51.232;6.826;2023-06-22T08:56:32;26.30;99.90
37050;DHT22;22958;51.232;6.826;2023-06-22T08:58:58;26.30;99.90
37050;DHT22;22958;51.232;6.826;2023-06-22T09:01:25;26.40;99.90
37050;DHT22;22958;51.232;6.826;2023-06-22T09:03:50;26.20;99.90
37050;DHT22;22958;51.232;6.826;2023-06-22T09:06:21;26.10;99.90
37050;DHT22;22958;51.232;6.826;2023-06-22T09:08:47;26.40;99.90
37050;DHT22;22958;51.232;6.826;2023-06-22T09:11:12;26.50;99.90
37050;DHT22;22958;51.232;6.826;2023-06-22T09:13:38;26.80;99.90
37050;DHT22;22958;51.232;6.826;2023-06-22T09:16:04;26.70;99.90
37050;DHT22;22958;51.232;6.826;2023-06-22T09:18:29;26.60;99.90
37050;DHT22;22958;51.232;6.826;2023-06-22T09:20:55;26.80;99.90
37050;DHT22;22958;51.232;6.826;2023-06-22T09:23:21;27.10;99.90
37050;DHT22;22958;51.232;6.826;2023-06-22T09:25:46;27.20;99.90
37050;DHT22;22958;51.232;6.826;2023-06-22T09:28:13;27.20;99.90
37050;DHT22;22958;51.232;6.826;2023-06-22T09:30:39;27.60;99.90
37050;DHT22;22958;51.232;6.826;2023-06-22T09:33:04;27.80;99.90
37050;DHT22;22958;51.232;6.826;2023-06-22T09:35:30;27.80;99.90
37050;DHT22;22958;51.232;6.826;2023-06-22T09:37:55;27.90;99.90
37050;DHT22;22958;51.232;6.826;2023-06-22T09:40:21;27.70;99.90
37050;DHT22;22958;51.232;6.826;2023-06-22T09:42:46;28.10;99.90
37050;DHT22;22958;51.232;6.826;2023-06-22T09:45:12;27.90;99.90
37050;DHT22;22958;51.232;6.826;2023-06-22T09:47:37;27.60;99.90
37050;DHT22;22958;51.232;6.826;2023-06-22T09:50:04;27.30;99.90
37050;DHT22;22958;51.232;6.826;2023-06-22T09:52:29;27.80;99.90
37050;DHT22;22958;51.232;6.826;2023-06-22T09:54:55;28.20;99.90
37050;DHT22;22958;51.232;6.826;2023-06-22T09:57:20;28.50;99.90
37050;DHT22;22958;51.232;6.826;2023-06-22T09:59:46;28.60;99.90
37050;DHT22;22958;51.232;6.826;2023-06-22T10:02:11;28.80;99.90
37050;DHT22;22958;51.232;6.826;2023-06-22T10:04:37;28.60;99.90
37050;DHT22;22958;51.232;6.826;2023-06-22T10:07:03;28.60;99.90
37050;DHT22;22958;51.232;6.826;2023-06-22T10:09:28;28.50;99.90
37050;DHT22;22958;51.232;6.826;2023-06-22T10:11:54;28.40;99.90
37050;DHT22;22958;51.232;6.826;2023-06-22T10:14:19;28.50;99.90
37050;DHT22;22958;51.232;6.826;2023-06-22T10:16:45;28.80;99.90
37050;DHT22;22958;51.232;6.826;2023-06-22T10:19:10;29.00;99.90
37050;DHT22;22958;51.232;6.826;2023-06-22T10:21:36;28.80;99.90
37050;DHT22;22958;51.232;6.826;2023-06-22T10:24:02;28.90;99.90
37050;DHT22;22958;51.232;6.826;2023-06-22T10:26:32;28.40;99.90
37050;DHT22;22958;51.232;6.826;2023-06-22T10:28:58;28.20;99.90
37050;DHT22;22958;51.232;6.826;2023-06-22T10:31:24;28.20;99.90
37050;DHT22;22958;51.232;6.826;2023-06-22T10:33:50;28.10;99.90
37050;DHT22;22958;51.232;6.826;2023-06-22T10:36:15;27.80;99.90
37050;DHT22;22958;51.232;6.826;2023-06-22T10:38:41;27.50;99.90
37050;DHT22;22958;51.232;6.826;2023-06-22T10:41:06;27.10;99.90
37050;DHT22;22958;51.232;6.826;2023-06-22T10:43:32;26.70;99.90
37050;DHT22;22958;51.232;6.826;2023-06-22T10:45:58;26.60;99.90
37050;DHT22;22958;51.232;6.826;2023-06-22T10:48:23;26.40;99.90
37050;DHT22;22958;51.232;6.826;2023-06-22T10:50:49;26.30;99.90
37050;DHT22;22958;51.232;6.826;2023-06-22T10:53:14;26.30;99.90
37050;DHT22;22958;51.232;6.826;2023-06-22T10:55:40;26.20;99.90
37050;DHT22;22958;51.232;6.826;2023-06-22T10:58:05;26.20;99.90
37050;DHT22;22958;51.232;6.826;2023-06-22T11:00:31;26.10;99.90
37050;DHT22;22958;51.232;6.826;2023-06-22T11:02:57;25.70;99.90
37050;DHT22;22958;51.232;6.826;2023-06-22T11:05:23;25.60;99.90
37050;DHT22;22958;51.232;6.826;2023-06-22T11:07:49;25.40;99.90
37050;DHT22;22958;51.232;6.826;2023-06-22T11:10:15;24.90;99.90
37050;DHT22;22958;51.232;6.826;2023-06-22T11:12:40;24.30;99.90
37050;DHT22;22958;51.232;6.826;2023-06-22T11:15:08;23.80;99.90
37050;DHT22;22958;51.232;6.826;2023-06-22T11:17:34;23.50;99.90
37050;DHT22;22958;51.232;6.826;2023-06-22T11:19:59;23.20;99.90
37050;DHT22;22958;51.232;6.826;2023-06-22T11:22:25;23.10;99.90
37050;DHT22;22958;51.232;6.826;2023-06-22T11:24:51;22.80;99.90
37050;DHT22;22958;51.232;6.826;2023-06-22T11:27:16;22.70;99.90
37050;DHT22;22958;51.232;6.826;2023-06-22T11:29:42;22.70;99.90
37050;DHT22;22958;51.232;6.826;2023-06-22T11:32:08;22.60;99.90
37050;DHT22;22958;51.232;6.826;2023-06-22T11:34:33;22.50;99.90
37050;DHT22;22958;51.232;6.826;2023-06-22T11:36:59;22.40;99.90
37050;DHT22;22958;51.232;6.826;2023-06-22T11:39:24;22.40;99.90
37050;DHT22;22958;51.232;6.826;2023-06-22T11:41:50;22.40;99.90
37050;DHT22;22958;51.232;6.826;2023-06-22T11:44:15;22.40;99.90
37050;DHT22;22958;51.232;6.826;2023-06-22T11:46:41;22.40;99.90
37050;DHT22;22958;51.232;6.826;2023-06-22T11:49:06;22.50;99.90
37050;DHT22;22958;51.232;6.826;2023-06-22T11:51:32;22.50;99.90
37050;DHT22;22958;51.232;6.826;2023-06-22T11:53:57;22.50;99.90
37050;DHT22;22958;51.232;6.826;2023-06-22T11:56:24;22.70;99.90
37050;DHT22;22958;51.232;6.826;2023-06-22T11:58:49;22.70;99.90
37050;DHT22;22958;51.232;6.826;2023-06-22T12:01:15;22.70;99.90
37050;DHT22;22958;51.232;6.826;2023-06-22T12:03:41;22.80;99.90
37050;DHT22;22958;51.232;6.826;2023-06-22T12:06:08;22.90;99.90
37050;DHT22;22958;51.232;6.826;2023-06-22T12:08:34;22.90;99.90
37050;DHT22;22958;51.232;6.826;2023-06-22T12:10:59;23.00;99.90
37050;DHT22;22958;51.232;6.826;2023-06-22T12:13:25;23.10;99.90
37050;DHT22;22958;51.232;6.826;2023-06-22T12:15:50;23.10;99.90
37050;DHT22;22958;51.232;6.826;2023-06-22T12:18:17;23.20;99.90
37050;DHT22;22958;51.232;6.826;2023-06-22T12:20:45;23.20;99.90
37050;DHT22;22958;51.232;6.826;2023-06-22T12:23:11;23.30;99.90
37050;DHT22;22958;51.232;6.826;2023-06-22T12:25:36;23.10;99.90
37050;DHT22;22958;51.232;6.826;2023-06-22T12:28:02;23.10;99.90
37050;DHT22;22958;51.232;6.826;2023-06-22T12:30:30;23.10;99.90
37050;DHT22;22958;51.232;6.826;2023-06-22T12:32:55;23.10;99.90
37050;DHT22;22958;51.232;6.826;2023-06-22T12:35:21;23.10;99.90
37050;DHT22;22958;51.232;6.826;2023-06-22T12:37:46;23.10;99.90
37050;DHT22;22958;51.232;6.826;2023-06-22T12:40:12;23.00;99.90
37050;DHT22;22958;51.232;6.826;2023-06-22T12:42:38;23.20;99.90
37050;DHT22;22958;51.232;6.826;2023-06-22T12:45:04;23.60;99.90
37050;DHT22;22958;51.232;6.826;2023-06-22T12:47:29;23.50;99.90
37050;DHT22;22958;51.232;6.826;2023-06-22T12:49:55;23.40;99.90
37050;DHT22;22958;51.232;6.826;2023-06-22T12:52:21;23.00;99.90
37050;DHT22;22958;51.232;6.826;2023-06-22T12:54:46;23.10;99.90
37050;DHT22;22958;51.232;6.826;2023-06-22T12:57:12;23.10;99.90
37050;DHT22;22958;51.232;6.826;2023-06-22T12:59:37;23.50;99.90
37050;DHT22;22958;51.232;6.826;2023-06-22T13:02:03;23.60;99.90
37050;DHT22;22958;51.232;6.826;2023-06-22T13:04:28;23.90;99.90
37050;DHT22;22958;51.232;6.826;2023-06-22T13:06:54;23.90;99.90
37050;DHT22;22958;51.232;6.826;2023-06-22T13:09:20;23.90;99.90
37050;DHT22;22958;51.232;6.826;2023-06-22T13:11:45;24.00;99.90
37050;DHT22;22958;51.232;6.826;2023-06-22T13:14:11;23.90;99.90
37050;DHT22;22958;51.232;6.826;2023-06-22T13:16:36;23.70;99.90
37050;DHT22;22958;51.232;6.826;2023-06-22T13:19:02;23.80;99.90
37050;DHT22;22958;51.232;6.826;2023-06-22T13:21:27;23.80;99.90
37050;DHT22;22958;51.232;6.826;2023-06-22T13:23:53;23.70;99.90
37050;DHT22;22958;51.232;6.826;2023-06-22T13:26:19;24.00;99.90
37050;DHT22;22958;51.232;6.826;2023-06-22T13:28:44;24.10;99.90
37050;DHT22;22958;51.232;6.826;2023-06-22T13:31:10;24.40;99.90
37050;DHT22;22958;51.232;6.826;2023-06-22T13:33:36;24.70;99.90
37050;DHT22;22958;51.232;6.826;2023-06-22T13:36:02;24.90;99.90
37050;DHT22;22958;51.232;6.826;2023-06-22T13:38:29;24.90;99.90
37050;DHT22;22958;51.232;6.826;2023-06-22T13:40:56;24.80;99.90
37050;DHT22;22958;51.232;6.826;2023-06-22T13:43:23;24.90;99.90
37050;DHT22;22958;51.232;6.826;2023-06-22T13:45:49;24.60;99.90
37050;DHT22;22958;51.232;6.826;2023-06-22T13:48:14;24.70;99.90
37050;DHT22;22958;51.232;6.826;2023-06-22T13:50:40;24.40;99.90
37050;DHT22;22958;51.232;6.826;2023-06-22T13:53:05;24.60;99.90
37050;DHT22;22958;51.232;6.826;2023-06-22T13:55:31;24.70;99.90
37050;DHT22;22958;51.232;6.826;2023-06-22T13:57:56;24.90;99.90
37050;DHT22;22958;51.232;6.826;2023-06-22T14:00:22;24.80;99.90
37050;DHT22;22958;51.232;6.826;2023-06-22T14:02:48;24.60;99.90
37050;DHT22;22958;51.232;6.826;2023-06-22T14:05:14;24.40;99.90
37050;DHT22;22958;51.232;6.826;2023-06-22T14:07:39;24.70;99.90
37050;DHT22;22958;51.232;6.826;2023-06-22T14:10:05;24.80;99.90
37050;DHT22;22958;51.232;6.826;2023-06-22T14:12:30;24.90;99.90
37050;DHT22;22958;51.232;6.826;2023-06-22T14:14:56;25.10;99.90
37050;DHT22;22958;51.232;6.826;2023-06-22T14:17:22;24.80;99.90
37050;DHT22;22958;51.232;6.826;2023-06-22T14:19:51;24.80;99.90
37050;DHT22;22958;51.232;6.826;2023-06-22T14:22:20;24.90;99.90
37050;DHT22;22958;51.232;6.826;2023-06-22T14:24:47;25.50;99.90
37050;DHT22;22958;51.232;6.826;2023-06-22T14:27:12;25.80;99.90
37050;DHT22;22958;51.232;6.826;2023-06-22T14:29:38;25.40;99.90
37050;DHT22;22958;51.232;6.826;2023-06-22T14:32:04;24.90;99.90
37050;DHT22;22958;51.232;6.826;2023-06-22T14:34:31;24.70;99.90
37050;DHT22;22958;51.232;6.826;2023-06-22T14:36:57;24.60;99.90
37050;DHT22;22958;51.232;6.826;2023-06-22T14:39:22;24.40;99.90
37050;DHT22;22958;51.232;6.826;2023-06-22T14:41:48;24.10;99.90
37050;DHT22;22958;51.232;6.826;2023-06-22T14:44:14;24.10;99.90
37050;DHT22;22958;51.232;6.826;2023-06-22T14:46:40;24.10;99.90
37050;DHT22;22958;51.232;6.826;2023-06-22T14:49:06;24.10;99.90
37050;DHT22;22958;51.232;6.826;2023-06-22T14:51:31;24.00;99.90
37050;DHT22;22958;51.232;6.826;2023-06-22T14:53:57;24.00;99.90
37050;DHT22;22958;51.232;6.826;2023-06-22T14:56:22;24.00;99.90
37050;DHT22;22958;51.232;6.826;2023-06-22T14:58:48;24.00;99.90
37050;DHT22;22958;51.232;6.826;2023-06-22T15:01:16;24.00;99.90
37050;DHT22;22958;51.232;6.826;2023-06-22T15:03:42;23.80;99.90
37050;DHT22;22958;51.232;6.826;2023-06-22T15:06:08;24.00;99.90
37050;DHT22;22958;51.232;6.826;2023-06-22T15:08:33;24.10;99.90
37050;DHT22;22958;51.232;6.826;2023-06-22T15:10:59;23.90;99.90
37050;DHT22;22958;51.232;6.826;2023-06-22T15:13:27;24.00;99.90
37050;DHT22;22958;51.232;6.826;2023-06-22T15:15:53;24.10;99.90
37050;DHT22;22958;51.232;6.826;2023-06-22T15:18:19;24.10;99.90
37050;DHT22;22958;51.232;6.826;2023-06-22T15:20:44;23.90;99.90
37050;DHT22;22958;51.232;6.826;2023-06-22T15:23:11;23.80;99.90
37050;DHT22;22958;51.232;6.826;2023-06-22T15:25:37;23.80;99.90
37050;DHT22;22958;51.232;6.826;2023-06-22T15:28:02;23.60;99.90
37050;DHT22;22958;51.232;6.826;2023-06-22T15:30:28;23.70;99.90